sensor_id;sensor_type;location;lat;lon;timestamp;P1;durP1;ratioP1;P2;durP2;ratioP2
19167;SDS011;9716;53.114;18.040;2022-12-07T00:01:46;11.27;;;4.33;;
19167;SDS011;9716;53.114;18.040;2022-12-07T00:04:16;14.83;;;5.70;;
19167;SDS011;9716;53.114;18.040;2022-12-07T00:06:46;13.47;;;5.23;;
19167;SDS011;9716;53.114;18.040;2022-12-07T00:09:20;12.40;;;4.90;;
19167;SDS011;9716;53.114;18.040;2022-12-07T00:11:49;12.93;;;5.23;;
19167;SDS011;9716;53.114;18.040;2022-12-07T00:14:19;8.73;;;4.53;;
19167;SDS011;9716;53.114;18.040;2022-12-07T00:16:48;12.93;;;5.33;;
19167;SDS011;9716;53.114;18.040;2022-12-07T00:19:18;7.23;;;4.60;;
19167;SDS011;9716;53.114;18.040;2022-12-07T00:21:47;11.93;;;4.67;;
19167;SDS011;9716;53.114;18.040;2022-12-07T00:24:15;8.43;;;4.43;;
19167;SDS011;9716;53.114;18.040;2022-12-07T00:26:45;11.60;;;4.70;;
19167;SDS011;9716;53.114;18.040;2022-12-07T00:29:15;12.53;;;4.87;;
19167;SDS011;9716;53.114;18.040;2022-12-07T00:31:45;9.47;;;4.30;;
19167;SDS011;9716;53.114;18.040;2022-12-07T00:34:15;11.53;;;5.30;;
19167;SDS011;9716;53.114;18.040;2022-12-07T00:36:44;10.50;;;4.30;;
19167;SDS011;9716;53.114;18.040;2022-12-07T00:39:13;8.93;;;4.37;;
19167;SDS011;9716;53.114;18.040;2022-12-07T00:41:42;8.37;;;4.63;;
19167;SDS011;9716;53.114;18.040;2022-12-07T00:44:12;9.33;;;4.37;;
19167;SDS011;9716;53.114;18.040;2022-12-07T00:46:40;7.20;;;4.27;;
19167;SDS011;9716;53.114;18.040;2022-12-07T00:49:09;9.20;;;4.60;;
19167;SDS011;9716;53.114;18.040;2022-12-07T00:51:38;9.57;;;4.47;;
19167;SDS011;9716;53.114;18.040;2022-12-07T00:54:06;7.83;;;4.27;;
19167;SDS011;9716;53.114;18.040;2022-12-07T00:56:35;11.00;;;4.67;;
19167;SDS011;9716;53.114;18.040;2022-12-07T00:59:03;9.80;;;4.30;;
19167;SDS011;9716;53.114;18.040;2022-12-07T01:01:34;8.50;;;4.17;;
19167;SDS011;9716;53.114;18.040;2022-12-07T01:04:04;7.60;;;4.33;;
19167;SDS011;9716;53.114;18.040;2022-12-07T01:06:33;7.60;;;4.43;;
19167;SDS011;9716;53.114;18.040;2022-12-07T01:09:02;10.47;;;3.87;;
19167;SDS011;9716;53.114;18.040;2022-12-07T01:11:31;10.10;;;3.50;;
19167;SDS011;9716;53.114;18.040;2022-12-07T01:14:00;7.73;;;4.17;;
19167;SDS011;9716;53.114;18.040;2022-12-07T01:16:29;9.30;;;4.03;;
19167;SDS011;9716;53.114;18.040;2022-12-07T01:19:00;7.27;;;3.77;;
19167;SDS011;9716;53.114;18.040;2022-12-07T01:21:32;7.77;;;4.33;;
19167;SDS011;9716;53.114;18.040;2022-12-07T01:24:04;6.57;;;4.37;;
19167;SDS011;9716;53.114;18.040;2022-12-07T01:26:35;7.87;;;3.77;;
19167;SDS011;9716;53.114;18.040;2022-12-07T01:29:03;6.60;;;4.07;;
19167;SDS011;9716;53.114;18.040;2022-12-07T01:31:32;8.30;;;3.97;;
19167;SDS011;9716;53.114;18.040;2022-12-07T01:34:03;8.87;;;4.20;;
19167;SDS011;9716;53.114;18.040;2022-12-07T01:36:32;7.07;;;3.77;;
19167;SDS011;9716;53.114;18.040;2022-12-07T01:39:02;6.20;;;3.40;;
19167;SDS011;9716;53.114;18.040;2022-12-07T01:41:32;5.90;;;3.50;;
19167;SDS011;9716;53.114;18.040;2022-12-07T01:44:10;5.40;;;3.30;;
19167;SDS011;9716;53.114;18.040;2022-12-07T01:46:49;5.43;;;3.00;;
19167;SDS011;9716;53.114;18.040;2022-12-07T01:49:23;4.00;;;2.20;;
19167;SDS011;9716;53.114;18.040;2022-12-07T01:51:57;3.57;;;2.57;;
19167;SDS011;9716;53.114;18.040;2022-12-07T01:54:31;8.07;;;3.50;;
19167;SDS011;9716;53.114;18.040;2022-12-07T01:57:01;5.30;;;2.90;;
19167;SDS011;9716;53.114;18.040;2022-12-07T01:59:32;4.37;;;2.63;;
19167;SDS011;9716;53.114;18.040;2022-12-07T02:02:01;5.50;;;3.23;;
19167;SDS011;9716;53.114;18.040;2022-12-07T02:04:33;6.13;;;3.37;;
19167;SDS011;9716;53.114;18.040;2022-12-07T02:07:03;2.97;;;2.00;;
19167;SDS011;9716;53.114;18.040;2022-12-07T02:09:34;4.57;;;2.60;;
19167;SDS011;9716;53.114;18.040;2022-12-07T02:12:02;5.60;;;2.90;;
19167;SDS011;9716;53.114;18.040;2022-12-07T02:14:32;5.53;;;2.53;;
19167;SDS011;9716;53.114;18.040;2022-12-07T02:17:03;3.83;;;2.57;;
19167;SDS011;9716;53.114;18.040;2022-12-07T02:25:55;9.50;;;3.00;;
19167;SDS011;9716;53.114;18.040;2022-12-07T02:28:35;5.47;;;2.87;;
19167;SDS011;9716;53.114;18.040;2022-12-07T02:31:10;6.30;;;3.17;;
19167;SDS011;9716;53.114;18.040;2022-12-07T02:33:45;4.93;;;2.60;;
19167;SDS011;9716;53.114;18.040;2022-12-07T02:36:18;4.63;;;3.23;;
19167;SDS011;9716;53.114;18.040;2022-12-07T02:38:54;4.23;;;2.13;;
19167;SDS011;9716;53.114;18.040;2022-12-07T02:41:28;7.60;;;3.37;;
19167;SDS011;9716;53.114;18.040;2022-12-07T02:44:01;5.27;;;3.07;;
19167;SDS011;9716;53.114;18.040;2022-12-07T02:46:35;5.23;;;3.23;;
19167;SDS011;9716;53.114;18.040;2022-12-07T02:49:07;7.13;;;3.97;;
19167;SDS011;9716;53.114;18.040;2022-12-07T02:51:38;6.97;;;3.80;;
19167;SDS011;9716;53.114;18.040;2022-12-07T02:54:09;10.43;;;5.10;;
19167;SDS011;9716;53.114;18.040;2022-12-07T02:56:42;9.03;;;4.00;;
19167;SDS011;9716;53.114;18.040;2022-12-07T02:59:17;10.10;;;4.23;;
19167;SDS011;9716;53.114;18.040;2022-12-07T03:02:00;9.40;;;3.67;;
19167;SDS011;9716;53.114;18.040;2022-12-07T03:04:40;9.83;;;4.30;;
19167;SDS011;9716;53.114;18.040;2022-12-07T03:07:15;8.83;;;4.70;;
19167;SDS011;9716;53.114;18.040;2022-12-07T03:09:50;9.23;;;4.87;;
19167;SDS011;9716;53.114;18.040;2022-12-07T03:12:27;9.83;;;4.83;;
19167;SDS011;9716;53.114;18.040;2022-12-07T03:15:01;7.40;;;4.53;;
19167;SDS011;9716;53.114;18.040;2022-12-07T03:17:34;12.97;;;6.23;;
19167;SDS011;9716;53.114;18.040;2022-12-07T03:20:07;8.80;;;4.70;;
19167;SDS011;9716;53.114;18.040;2022-12-07T03:22:39;10.53;;;5.40;;
19167;SDS011;9716;53.114;18.040;2022-12-07T03:25:11;11.23;;;5.50;;
19167;SDS011;9716;53.114;18.040;2022-12-07T03:27:44;10.20;;;5.83;;
19167;SDS011;9716;53.114;18.040;2022-12-07T03:30:19;9.27;;;5.70;;
19167;SDS011;9716;53.114;18.040;2022-12-07T03:32:52;14.00;;;6.37;;
19167;SDS011;9716;53.114;18.040;2022-12-07T03:35:25;12.23;;;6.13;;
19167;SDS011;9716;53.114;18.040;2022-12-07T03:37:57;15.90;;;6.00;;
19167;SDS011;9716;53.114;18.040;2022-12-07T03:40:28;11.50;;;6.20;;
19167;SDS011;9716;53.114;18.040;2022-12-07T03:43:00;10.03;;;6.40;;
19167;SDS011;9716;53.114;18.040;2022-12-07T03:45:31;9.33;;;5.53;;
19167;SDS011;9716;53.114;18.040;2022-12-07T03:48:08;9.50;;;5.80;;
19167;SDS011;9716;53.114;18.040;2022-12-07T03:50:47;17.83;;;6.10;;
19167;SDS011;9716;53.114;18.040;2022-12-07T03:53:22;11.70;;;5.13;;
19167;SDS011;9716;53.114;18.040;2022-12-07T03:55:57;9.60;;;4.97;;
19167;SDS011;9716;53.114;18.040;2022-12-07T03:58:26;8.73;;;5.47;;
19167;SDS011;9716;53.114;18.040;2022-12-07T04:00:57;11.23;;;6.03;;
19167;SDS011;9716;53.114;18.040;2022-12-07T04:03:27;7.77;;;4.60;;
19167;SDS011;9716;53.114;18.040;2022-12-07T04:05:55;7.50;;;4.80;;
19167;SDS011;9716;53.114;18.040;2022-12-07T04:08:25;8.90;;;5.30;;
19167;SDS011;9716;53.114;18.040;2022-12-07T04:10:53;10.43;;;5.33;;
19167;SDS011;9716;53.114;18.040;2022-12-07T04:13:22;10.77;;;5.27;;
19167;SDS011;9716;53.114;18.040;2022-12-07T04:15:50;11.70;;;5.57;;
19167;SDS011;9716;53.114;18.040;2022-12-07T04:18:19;7.47;;;4.63;;
19167;SDS011;9716;53.114;18.040;2022-12-07T04:20:49;8.17;;;5.00;;
19167;SDS011;9716;53.114;18.040;2022-12-07T04:23:17;9.87;;;5.73;;
19167;SDS011;9716;53.114;18.040;2022-12-07T04:25:47;9.23;;;5.47;;
19167;SDS011;9716;53.114;18.040;2022-12-07T04:28:16;7.93;;;4.37;;
19167;SDS011;9716;53.114;18.040;2022-12-07T04:30:45;9.53;;;4.37;;
19167;SDS011;9716;53.114;18.040;2022-12-07T04:33:14;8.07;;;4.23;;
19167;SDS011;9716;53.114;18.040;2022-12-07T04:35:42;7.70;;;4.33;;
19167;SDS011;9716;53.114;18.040;2022-12-07T04:38:12;7.33;;;4.30;;
19167;SDS011;9716;53.114;18.040;2022-12-07T04:40:40;7.63;;;4.57;;
19167;SDS011;9716;53.114;18.040;2022-12-07T04:43:09;7.90;;;4.30;;
19167;SDS011;9716;53.114;18.040;2022-12-07T04:45:37;8.00;;;4.37;;
19167;SDS011;9716;53.114;18.040;2022-12-07T04:48:06;5.47;;;3.50;;
19167;SDS011;9716;53.114;18.040;2022-12-07T04:50:35;8.20;;;3.90;;
19167;SDS011;9716;53.114;18.040;2022-12-07T04:53:13;6.33;;;3.17;;
19167;SDS011;9716;53.114;18.040;2022-12-07T04:55:41;6.73;;;3.27;;
19167;SDS011;9716;53.114;18.040;2022-12-07T04:58:10;4.33;;;3.50;;
19167;SDS011;9716;53.114;18.040;2022-12-07T05:00:38;5.57;;;3.37;;
19167;SDS011;9716;53.114;18.040;2022-12-07T05:03:07;5.90;;;3.77;;
19167;SDS011;9716;53.114;18.040;2022-12-07T05:05:36;4.73;;;3.50;;
19167;SDS011;9716;53.114;18.040;2022-12-07T05:08:07;4.07;;;2.87;;
19167;SDS011;9716;53.114;18.040;2022-12-07T05:10:37;8.50;;;3.17;;
19167;SDS011;9716;53.114;18.040;2022-12-07T05:13:05;5.30;;;3.47;;
19167;SDS011;9716;53.114;18.040;2022-12-07T05:15:34;4.80;;;3.40;;
19167;SDS011;9716;53.114;18.040;2022-12-07T05:18:02;3.90;;;2.93;;
19167;SDS011;9716;53.114;18.040;2022-12-07T05:20:31;5.23;;;3.20;;
19167;SDS011;9716;53.114;18.040;2022-12-07T05:23:07;8.20;;;4.17;;
19167;SDS011;9716;53.114;18.040;2022-12-07T05:25:37;3.60;;;2.70;;
19167;SDS011;9716;53.114;18.040;2022-12-07T05:28:06;6.10;;;3.30;;
19167;SDS011;9716;53.114;18.040;2022-12-07T05:30:35;4.77;;;3.17;;
19167;SDS011;9716;53.114;18.040;2022-12-07T05:33:04;3.77;;;2.70;;
19167;SDS011;9716;53.114;18.040;2022-12-07T05:35:32;10.00;;;3.40;;
19167;SDS011;9716;53.114;18.040;2022-12-07T05:38:02;5.50;;;2.73;;
19167;SDS011;9716;53.114;18.040;2022-12-07T05:40:30;8.63;;;3.70;;
19167;SDS011;9716;53.114;18.040;2022-12-07T05:43:00;7.77;;;3.60;;
19167;SDS011;9716;53.114;18.040;2022-12-07T05:45:30;6.63;;;3.80;;
19167;SDS011;9716;53.114;18.040;2022-12-07T05:47:59;7.93;;;3.93;;
19167;SDS011;9716;53.114;18.040;2022-12-07T05:50:27;7.20;;;3.53;;
19167;SDS011;9716;53.114;18.040;2022-12-07T05:52:56;4.93;;;3.43;;
19167;SDS011;9716;53.114;18.040;2022-12-07T05:55:24;6.33;;;3.50;;
19167;SDS011;9716;53.114;18.040;2022-12-07T05:57:53;7.90;;;4.00;;
19167;SDS011;9716;53.114;18.040;2022-12-07T06:00:40;7.33;;;3.87;;
19167;SDS011;9716;53.114;18.040;2022-12-07T06:03:16;9.93;;;4.60;;
19167;SDS011;9716;53.114;18.040;2022-12-07T06:05:44;8.10;;;4.50;;
19167;SDS011;9716;53.114;18.040;2022-12-07T06:08:13;9.93;;;4.00;;
19167;SDS011;9716;53.114;18.040;2022-12-07T06:10:42;8.97;;;4.20;;
19167;SDS011;9716;53.114;18.040;2022-12-07T06:13:11;5.47;;;3.60;;
19167;SDS011;9716;53.114;18.040;2022-12-07T06:15:38;10.73;;;4.57;;
19167;SDS011;9716;53.114;18.040;2022-12-07T06:18:09;13.63;;;4.57;;
19167;SDS011;9716;53.114;18.040;2022-12-07T06:20:37;11.83;;;5.23;;
19167;SDS011;9716;53.114;18.040;2022-12-07T06:23:05;13.17;;;4.83;;
19167;SDS011;9716;53.114;18.040;2022-12-07T06:25:34;8.60;;;4.60;;
19167;SDS011;9716;53.114;18.040;2022-12-07T06:28:03;8.83;;;4.20;;
19167;SDS011;9716;53.114;18.040;2022-12-07T06:30:31;14.70;;;5.20;;
19167;SDS011;9716;53.114;18.040;2022-12-07T06:33:01;11.40;;;3.70;;
19167;SDS011;9716;53.114;18.040;2022-12-07T06:35:29;11.13;;;4.70;;
19167;SDS011;9716;53.114;18.040;2022-12-07T06:38:00;12.03;;;4.93;;
19167;SDS011;9716;53.114;18.040;2022-12-07T06:40:29;9.67;;;5.23;;
19167;SDS011;9716;53.114;18.040;2022-12-07T06:42:57;10.63;;;5.20;;
19167;SDS011;9716;53.114;18.040;2022-12-07T06:45:26;12.30;;;5.57;;
19167;SDS011;9716;53.114;18.040;2022-12-07T06:47:54;8.63;;;4.70;;
19167;SDS011;9716;53.114;18.040;2022-12-07T06:50:24;12.70;;;5.10;;
19167;SDS011;9716;53.114;18.040;2022-12-07T06:52:53;11.20;;;4.93;;
19167;SDS011;9716;53.114;18.040;2022-12-07T06:55:22;13.13;;;6.23;;
19167;SDS011;9716;53.114;18.040;2022-12-07T06:57:50;9.37;;;5.43;;
19167;SDS011;9716;53.114;18.040;2022-12-07T07:00:19;17.73;;;6.13;;
19167;SDS011;9716;53.114;18.040;2022-12-07T07:02:48;18.27;;;6.17;;
19167;SDS011;9716;53.114;18.040;2022-12-07T07:05:17;14.10;;;6.17;;
19167;SDS011;9716;53.114;18.040;2022-12-07T07:07:49;14.07;;;6.57;;
19167;SDS011;9716;53.114;18.040;2022-12-07T07:10:39;19.40;;;6.63;;
19167;SDS011;9716;53.114;18.040;2022-12-07T07:13:08;16.20;;;7.20;;
19167;SDS011;9716;53.114;18.040;2022-12-07T07:15:37;10.43;;;6.50;;
19167;SDS011;9716;53.114;18.040;2022-12-07T07:18:06;16.80;;;6.93;;
19167;SDS011;9716;53.114;18.040;2022-12-07T07:20:34;14.80;;;6.80;;
19167;SDS011;9716;53.114;18.040;2022-12-07T07:23:04;15.27;;;6.00;;
19167;SDS011;9716;53.114;18.040;2022-12-07T07:25:33;14.07;;;7.00;;
19167;SDS011;9716;53.114;18.040;2022-12-07T07:28:02;15.23;;;6.20;;
19167;SDS011;9716;53.114;18.040;2022-12-07T07:30:31;19.17;;;7.17;;
19167;SDS011;9716;53.114;18.040;2022-12-07T07:33:01;11.07;;;6.20;;
19167;SDS011;9716;53.114;18.040;2022-12-07T07:35:30;16.57;;;8.40;;
19167;SDS011;9716;53.114;18.040;2022-12-07T07:38:00;15.23;;;6.47;;
19167;SDS011;9716;53.114;18.040;2022-12-07T07:40:31;12.67;;;6.87;;
19167;SDS011;9716;53.114;18.040;2022-12-07T07:43:02;13.87;;;6.47;;
19167;SDS011;9716;53.114;18.040;2022-12-07T07:45:31;16.37;;;6.70;;
19167;SDS011;9716;53.114;18.040;2022-12-07T07:47:59;16.97;;;7.20;;
19167;SDS011;9716;53.114;18.040;2022-12-07T07:50:28;13.93;;;7.07;;
19167;SDS011;9716;53.114;18.040;2022-12-07T07:52:57;14.83;;;6.33;;
19167;SDS011;9716;53.114;18.040;2022-12-07T07:55:25;12.97;;;6.83;;
19167;SDS011;9716;53.114;18.040;2022-12-07T07:57:56;16.13;;;6.80;;
19167;SDS011;9716;53.114;18.040;2022-12-07T08:00:24;15.83;;;7.20;;
19167;SDS011;9716;53.114;18.040;2022-12-07T08:02:53;19.90;;;6.50;;
19167;SDS011;9716;53.114;18.040;2022-12-07T08:05:21;17.77;;;7.80;;
19167;SDS011;9716;53.114;18.040;2022-12-07T08:07:50;15.13;;;6.23;;
19167;SDS011;9716;53.114;18.040;2022-12-07T08:10:18;14.97;;;7.07;;
19167;SDS011;9716;53.114;18.040;2022-12-07T08:12:47;18.67;;;7.60;;
19167;SDS011;9716;53.114;18.040;2022-12-07T08:15:35;13.87;;;7.47;;
19167;SDS011;9716;53.114;18.040;2022-12-07T08:18:06;14.37;;;7.17;;
19167;SDS011;9716;53.114;18.040;2022-12-07T08:20:35;13.07;;;7.30;;
19167;SDS011;9716;53.114;18.040;2022-12-07T08:23:05;15.43;;;6.70;;
19167;SDS011;9716;53.114;18.040;2022-12-07T08:25:34;12.90;;;6.80;;
19167;SDS011;9716;53.114;18.040;2022-12-07T08:28:03;23.27;;;7.40;;
19167;SDS011;9716;53.114;18.040;2022-12-07T08:30:31;19.23;;;6.80;;
19167;SDS011;9716;53.114;18.040;2022-12-07T08:33:02;14.37;;;7.73;;
19167;SDS011;9716;53.114;18.040;2022-12-07T08:35:32;14.93;;;6.60;;
19167;SDS011;9716;53.114;18.040;2022-12-07T08:38:01;16.17;;;6.80;;
19167;SDS011;9716;53.114;18.040;2022-12-07T08:40:30;14.90;;;7.57;;
19167;SDS011;9716;53.114;18.040;2022-12-07T08:42:58;14.40;;;6.70;;
19167;SDS011;9716;53.114;18.040;2022-12-07T08:45:27;13.50;;;7.13;;
19167;SDS011;9716;53.114;18.040;2022-12-07T08:48:00;10.30;;;6.03;;
19167;SDS011;9716;53.114;18.040;2022-12-07T08:50:33;13.70;;;6.60;;
19167;SDS011;9716;53.114;18.040;2022-12-07T08:53:04;15.53;;;6.60;;
19167;SDS011;9716;53.114;18.040;2022-12-07T08:55:34;11.37;;;6.67;;
19167;SDS011;9716;53.114;18.040;2022-12-07T08:58:03;13.67;;;6.83;;
19167;SDS011;9716;53.114;18.040;2022-12-07T09:00:31;25.03;;;6.33;;
19167;SDS011;9716;53.114;18.040;2022-12-07T09:03:00;10.30;;;5.87;;
19167;SDS011;9716;53.114;18.040;2022-12-07T09:05:30;13.47;;;7.33;;
19167;SDS011;9716;53.114;18.040;2022-12-07T09:08:01;11.43;;;6.17;;
19167;SDS011;9716;53.114;18.040;2022-12-07T09:10:30;11.07;;;6.60;;
19167;SDS011;9716;53.114;18.040;2022-12-07T09:12:58;15.20;;;6.70;;
19167;SDS011;9716;53.114;18.040;2022-12-07T09:15:27;12.43;;;6.30;;
19167;SDS011;9716;53.114;18.040;2022-12-07T09:17:57;17.97;;;6.97;;
19167;SDS011;9716;53.114;18.040;2022-12-07T09:20:25;15.43;;;7.77;;
19167;SDS011;9716;53.114;18.040;2022-12-07T09:22:55;21.47;;;8.10;;
19167;SDS011;9716;53.114;18.040;2022-12-07T09:25:24;11.77;;;6.33;;
19167;SDS011;9716;53.114;18.040;2022-12-07T09:27:57;14.43;;;7.10;;
19167;SDS011;9716;53.114;18.040;2022-12-07T09:30:26;8.97;;;5.90;;
19167;SDS011;9716;53.114;18.040;2022-12-07T09:32:55;10.63;;;5.97;;
19167;SDS011;9716;53.114;18.040;2022-12-07T09:35:25;13.77;;;6.27;;
19167;SDS011;9716;53.114;18.040;2022-12-07T09:37:55;14.30;;;7.30;;
19167;SDS011;9716;53.114;18.040;2022-12-07T09:40:24;11.03;;;6.27;;
19167;SDS011;9716;53.114;18.040;2022-12-07T09:42:53;11.40;;;6.33;;
19167;SDS011;9716;53.114;18.040;2022-12-07T09:45:23;13.23;;;6.10;;
19167;SDS011;9716;53.114;18.040;2022-12-07T09:47:53;11.67;;;6.50;;
19167;SDS011;9716;53.114;18.040;2022-12-07T09:50:23;10.67;;;6.43;;
19167;SDS011;9716;53.114;18.040;2022-12-07T09:52:53;10.83;;;5.77;;
19167;SDS011;9716;53.114;18.040;2022-12-07T09:55:33;13.03;;;6.30;;
19167;SDS011;9716;53.114;18.040;2022-12-07T09:58:03;18.07;;;6.87;;
19167;SDS011;9716;53.114;18.040;2022-12-07T10:00:32;11.63;;;6.77;;
19167;SDS011;9716;53.114;18.040;2022-12-07T10:03:01;10.67;;;6.53;;
19167;SDS011;9716;53.114;18.040;2022-12-07T10:05:31;14.80;;;6.07;;
19167;SDS011;9716;53.114;18.040;2022-12-07T10:08:05;14.17;;;6.83;;
19167;SDS011;9716;53.114;18.040;2022-12-07T10:10:35;11.00;;;6.90;;
19167;SDS011;9716;53.114;18.040;2022-12-07T10:13:06;8.67;;;5.60;;
19167;SDS011;9716;53.114;18.040;2022-12-07T10:18:33;11.00;;;5.83;;
19167;SDS011;9716;53.114;18.040;2022-12-07T10:21:10;12.90;;;6.57;;
19167;SDS011;9716;53.114;18.040;2022-12-07T10:23:43;11.13;;;5.60;;
19167;SDS011;9716;53.114;18.040;2022-12-07T10:26:29;11.00;;;6.23;;
19167;SDS011;9716;53.114;18.040;2022-12-07T10:29:00;11.70;;;6.33;;
19167;SDS011;9716;53.114;18.040;2022-12-07T10:31:32;12.70;;;6.70;;
19167;SDS011;9716;53.114;18.040;2022-12-07T10:34:13;11.00;;;6.90;;
19167;SDS011;9716;53.114;18.040;2022-12-07T10:36:50;11.30;;;6.87;;
19167;SDS011;9716;53.114;18.040;2022-12-07T10:39:21;11.83;;;6.33;;
19167;SDS011;9716;53.114;18.040;2022-12-07T10:41:54;11.30;;;6.30;;
19167;SDS011;9716;53.114;18.040;2022-12-07T10:44:25;17.17;;;7.03;;
19167;SDS011;9716;53.114;18.040;2022-12-07T10:52:57;14.03;;;7.03;;
19167;SDS011;9716;53.114;18.040;2022-12-07T10:55:45;13.17;;;6.63;;
19167;SDS011;9716;53.114;18.040;2022-12-07T10:58:36;13.60;;;5.87;;
19167;SDS011;9716;53.114;18.040;2022-12-07T11:01:17;14.47;;;6.50;;
19167;SDS011;9716;53.114;18.040;2022-12-07T11:03:54;15.90;;;6.40;;
19167;SDS011;9716;53.114;18.040;2022-12-07T11:06:33;12.90;;;6.87;;
19167;SDS011;9716;53.114;18.040;2022-12-07T11:09:16;9.43;;;5.87;;
19167;SDS011;9716;53.114;18.040;2022-12-07T11:12:33;10.90;;;5.37;;
19167;SDS011;9716;53.114;18.040;2022-12-07T11:15:13;9.47;;;5.53;;
19167;SDS011;9716;53.114;18.040;2022-12-07T11:17:52;9.40;;;4.60;;
19167;SDS011;9716;53.114;18.040;2022-12-07T11:20:34;16.00;;;6.97;;
19167;SDS011;9716;53.114;18.040;2022-12-07T11:23:11;13.97;;;6.13;;
19167;SDS011;9716;53.114;18.040;2022-12-07T11:25:48;14.03;;;6.73;;
19167;SDS011;9716;53.114;18.040;2022-12-07T11:28:28;11.33;;;6.20;;
19167;SDS011;9716;53.114;18.040;2022-12-07T11:31:12;9.90;;;5.83;;
19167;SDS011;9716;53.114;18.040;2022-12-07T11:33:56;11.90;;;5.63;;
19167;SDS011;9716;53.114;18.040;2022-12-07T11:36:33;10.07;;;5.53;;
19167;SDS011;9716;53.114;18.040;2022-12-07T11:39:09;12.93;;;6.33;;
19167;SDS011;9716;53.114;18.040;2022-12-07T11:41:55;13.80;;;6.10;;
19167;SDS011;9716;53.114;18.040;2022-12-07T11:44:32;12.23;;;5.70;;
19167;SDS011;9716;53.114;18.040;2022-12-07T11:47:05;11.00;;;5.37;;
19167;SDS011;9716;53.114;18.040;2022-12-07T11:49:40;10.90;;;5.13;;
19167;SDS011;9716;53.114;18.040;2022-12-07T11:52:14;12.43;;;5.23;;
19167;SDS011;9716;53.114;18.040;2022-12-07T11:54:49;9.33;;;5.00;;
19167;SDS011;9716;53.114;18.040;2022-12-07T11:57:22;11.30;;;6.20;;
19167;SDS011;9716;53.114;18.040;2022-12-07T11:59:59;13.10;;;5.10;;
19167;SDS011;9716;53.114;18.040;2022-12-07T12:02:33;9.07;;;5.20;;
19167;SDS011;9716;53.114;18.040;2022-12-07T12:05:12;15.40;;;5.77;;
19167;SDS011;9716;53.114;18.040;2022-12-07T12:07:43;15.10;;;5.93;;
19167;SDS011;9716;53.114;18.040;2022-12-07T12:10:38;10.10;;;5.27;;
19167;SDS011;9716;53.114;18.040;2022-12-07T12:13:31;11.23;;;5.33;;
19167;SDS011;9716;53.114;18.040;2022-12-07T12:16:54;8.67;;;5.10;;
19167;SDS011;9716;53.114;18.040;2022-12-07T12:19:35;11.90;;;6.37;;
19167;SDS011;9716;53.114;18.040;2022-12-07T12:22:10;8.10;;;4.53;;
19167;SDS011;9716;53.114;18.040;2022-12-07T12:24:43;11.20;;;5.90;;
19167;SDS011;9716;53.114;18.040;2022-12-07T12:27:17;7.73;;;5.00;;
19167;SDS011;9716;53.114;18.040;2022-12-07T12:29:52;12.10;;;6.10;;
19167;SDS011;9716;53.114;18.040;2022-12-07T12:32:29;11.67;;;5.80;;
19167;SDS011;9716;53.114;18.040;2022-12-07T12:35:20;10.33;;;5.63;;
19167;SDS011;9716;53.114;18.040;2022-12-07T12:37:57;11.73;;;6.30;;
19167;SDS011;9716;53.114;18.040;2022-12-07T12:41:02;10.97;;;5.97;;
19167;SDS011;9716;53.114;18.040;2022-12-07T12:43:45;10.70;;;5.90;;
19167;SDS011;9716;53.114;18.040;2022-12-07T12:49:33;12.70;;;6.03;;
19167;SDS011;9716;53.114;18.040;2022-12-07T12:55:18;11.87;;;5.57;;
19167;SDS011;9716;53.114;18.040;2022-12-07T13:04:26;10.30;;;5.70;;
19167;SDS011;9716;53.114;18.040;2022-12-07T13:10:38;11.70;;;6.00;;
19167;SDS011;9716;53.114;18.040;2022-12-07T13:13:28;9.63;;;6.10;;
19167;SDS011;9716;53.114;18.040;2022-12-07T13:22:40;8.00;;;5.27;;
19167;SDS011;9716;53.114;18.040;2022-12-07T13:25:21;11.67;;;6.60;;
19167;SDS011;9716;53.114;18.040;2022-12-07T13:27:59;12.20;;;6.33;;
19167;SDS011;9716;53.114;18.040;2022-12-07T13:30:30;7.90;;;5.70;;
19167;SDS011;9716;53.114;18.040;2022-12-07T13:33:03;12.53;;;7.07;;
19167;SDS011;9716;53.114;18.040;2022-12-07T13:35:32;14.03;;;6.30;;
19167;SDS011;9716;53.114;18.040;2022-12-07T13:38:13;10.47;;;6.03;;
19167;SDS011;9716;53.114;18.040;2022-12-07T13:41:02;14.07;;;6.57;;
19167;SDS011;9716;53.114;18.040;2022-12-07T13:46:30;10.57;;;5.77;;
19167;SDS011;9716;53.114;18.040;2022-12-07T13:49:19;11.17;;;5.83;;
19167;SDS011;9716;53.114;18.040;2022-12-07T13:51:50;12.80;;;5.90;;
19167;SDS011;9716;53.114;18.040;2022-12-07T13:54:21;11.63;;;6.43;;
19167;SDS011;9716;53.114;18.040;2022-12-07T13:56:51;12.70;;;6.57;;
19167;SDS011;9716;53.114;18.040;2022-12-07T13:59:20;12.70;;;6.33;;
19167;SDS011;9716;53.114;18.040;2022-12-07T14:01:51;13.77;;;6.77;;
19167;SDS011;9716;53.114;18.040;2022-12-07T14:04:31;14.13;;;6.70;;
19167;SDS011;9716;53.114;18.040;2022-12-07T14:07:01;13.63;;;7.43;;
19167;SDS011;9716;53.114;18.040;2022-12-07T14:09:56;12.30;;;6.73;;
19167;SDS011;9716;53.114;18.040;2022-12-07T14:12:27;13.00;;;6.43;;
19167;SDS011;9716;53.114;18.040;2022-12-07T14:14:57;16.23;;;6.67;;
19167;SDS011;9716;53.114;18.040;2022-12-07T14:17:29;13.47;;;7.13;;
19167;SDS011;9716;53.114;18.040;2022-12-07T14:19:58;12.43;;;6.10;;
19167;SDS011;9716;53.114;18.040;2022-12-07T14:22:30;11.63;;;6.70;;
19167;SDS011;9716;53.114;18.040;2022-12-07T14:25:13;14.30;;;6.60;;
19167;SDS011;9716;53.114;18.040;2022-12-07T14:27:49;15.60;;;5.90;;
19167;SDS011;9716;53.114;18.040;2022-12-07T14:30:22;13.17;;;6.67;;
19167;SDS011;9716;53.114;18.040;2022-12-07T14:32:53;14.60;;;7.20;;
19167;SDS011;9716;53.114;18.040;2022-12-07T14:35:25;15.60;;;7.40;;
19167;SDS011;9716;53.114;18.040;2022-12-07T14:37:54;11.67;;;6.40;;
19167;SDS011;9716;53.114;18.040;2022-12-07T14:40:24;9.60;;;5.57;;
19167;SDS011;9716;53.114;18.040;2022-12-07T14:42:56;14.03;;;6.70;;
19167;SDS011;9716;53.114;18.040;2022-12-07T14:45:28;10.63;;;5.47;;
19167;SDS011;9716;53.114;18.040;2022-12-07T14:47:57;10.63;;;6.03;;
19167;SDS011;9716;53.114;18.040;2022-12-07T14:50:47;11.70;;;6.77;;
19167;SDS011;9716;53.114;18.040;2022-12-07T14:53:41;10.63;;;6.47;;
19167;SDS011;9716;53.114;18.040;2022-12-07T14:56:20;10.97;;;6.30;;
19167;SDS011;9716;53.114;18.040;2022-12-07T14:58:49;10.67;;;5.47;;
19167;SDS011;9716;53.114;18.040;2022-12-07T15:01:17;9.77;;;5.03;;
19167;SDS011;9716;53.114;18.040;2022-12-07T15:03:45;13.60;;;6.00;;
19167;SDS011;9716;53.114;18.040;2022-12-07T15:06:15;8.10;;;5.33;;
19167;SDS011;9716;53.114;18.040;2022-12-07T15:08:46;8.13;;;4.77;;
19167;SDS011;9716;53.114;18.040;2022-12-07T15:11:14;9.07;;;4.57;;
19167;SDS011;9716;53.114;18.040;2022-12-07T15:13:46;10.53;;;5.37;;
19167;SDS011;9716;53.114;18.040;2022-12-07T15:16:32;10.20;;;4.97;;
19167;SDS011;9716;53.114;18.040;2022-12-07T15:19:22;8.90;;;4.87;;
19167;SDS011;9716;53.114;18.040;2022-12-07T15:21:54;13.17;;;5.47;;
19167;SDS011;9716;53.114;18.040;2022-12-07T15:24:23;9.70;;;5.17;;
19167;SDS011;9716;53.114;18.040;2022-12-07T15:26:52;8.00;;;4.40;;
19167;SDS011;9716;53.114;18.040;2022-12-07T15:29:22;12.67;;;4.43;;
19167;SDS011;9716;53.114;18.040;2022-12-07T15:31:51;7.60;;;4.40;;
19167;SDS011;9716;53.114;18.040;2022-12-07T15:34:23;8.27;;;4.80;;
19167;SDS011;9716;53.114;18.040;2022-12-07T15:36:53;8.57;;;4.90;;
19167;SDS011;9716;53.114;18.040;2022-12-07T15:39:22;9.87;;;5.73;;
19167;SDS011;9716;53.114;18.040;2022-12-07T15:41:50;12.07;;;5.07;;
19167;SDS011;9716;53.114;18.040;2022-12-07T15:44:18;8.33;;;5.10;;
19167;SDS011;9716;53.114;18.040;2022-12-07T15:47:05;8.50;;;4.47;;
19167;SDS011;9716;53.114;18.040;2022-12-07T15:49:35;11.23;;;5.17;;
19167;SDS011;9716;53.114;18.040;2022-12-07T15:52:03;11.27;;;4.97;;
19167;SDS011;9716;53.114;18.040;2022-12-07T15:54:32;9.97;;;4.90;;